Time;durP1;ratioP1;P1;durP2;ratioP2;P2;SDS_P1;SDS_P2;PMS_P1;PMS_P2;Temp;Humidity;BMP_temperature;BMP_pressure;BME280_temperature;BME280_humidity;BME280_pressure;Samples;Min_cycle;Max_cycle;Signal;HPM_P1;HPM_P2
2021/07/16 00:01:59;;;;;;;26.45;8.75;;;17.00;99.90;;;;;;5113836;28;20039;-72
2021/07/16 00:04:24;;;;;;;19.15;7.88;;;17.10;99.90;;;;;;5113863;28;20036;-72
2021/07/16 00:06:50;;;;;;;24.63;8.27;;;17.00;99.90;;;;;;5113922;28;20086;-73
2021/07/16 00:09:18;;;;;;;24.20;8.73;;;17.00;99.90;;;;;;5113667;28;20519;-72
2021/07/16 00:11:44;;;;;;;20.38;8.05;;;17.00;99.90;;;;;;5113568;28;20043;-73
2021/07/16 00:14:10;;;;;;;24.30;9.05;;;17.00;99.90;;;;;;5114008;28;20074;-72
2021/07/16 00:16:38;;;;;;;22.77;7.32;;;17.10;99.90;;;;;;5113668;28;20035;-72
2021/07/16 00:19:04;;;;;;;22.95;8.60;;;17.00;99.90;;;;;;5112452;28;20036;-73
2021/07/16 00:21:30;;;;;;;15.35;6.70;;;16.90;99.90;;;;;;5113572;28;20067;-72
2021/07/16 00:23:56;;;;;;;22.92;7.13;;;16.90;99.90;;;;;;5114036;28;20035;-73
2021/07/16 00:26:21;;;;;;;20.10;7.25;;;16.90;99.90;;;;;;5114126;28;20040;-72
2021/07/16 00:28:47;;;;;;;19.80;6.30;;;17.00;99.90;;;;;;5113380;28;20114;-72
2021/07/16 00:31:13;;;;;;;26.13;7.97;;;16.80;99.90;;;;;;5113375;28;20109;-72
2021/07/16 00:33:40;;;;;;;23.40;8.35;;;16.90;99.90;;;;;;5113500;28;20089;-72
2021/07/16 00:36:05;;;;;;;18.02;7.00;;;16.90;99.90;;;;;;5113516;28;20540;-72
2021/07/16 00:38:31;;;;;;;21.83;6.72;;;16.80;99.90;;;;;;5113255;28;20119;-71
2021/07/16 00:40:57;;;;;;;20.33;8.07;;;16.80;99.90;;;;;;5113354;28;20042;-71
2021/07/16 00:43:23;;;;;;;22.73;7.72;;;16.80;99.90;;;;;;5114018;28;20452;-71
2021/07/16 00:45:49;;;;;;;17.42;7.60;;;16.80;99.90;;;;;;5113797;28;20032;-72
2021/07/16 00:48:15;;;;;;;23.85;6.22;;;16.80;99.90;;;;;;5113543;28;20031;-72
2021/07/16 00:50:41;;;;;;;19.65;6.22;;;16.80;99.90;;;;;;5112967;28;20050;-72
2021/07/16 00:53:09;;;;;;;24.92;6.63;;;16.80;99.90;;;;;;5113831;28;20479;-72
2021/07/16 00:55:37;;;;;;;19.63;6.80;;;16.80;99.90;;;;;;5113271;28;20039;-72
2021/07/16 00:58:04;;;;;;;16.70;6.70;;;16.80;99.90;;;;;;5113662;28;20040;-72
2021/07/16 01:00:30;;;;;;;17.75;5.95;;;16.80;99.90;;;;;;5111955;28;20051;-72
2021/07/16 01:02:55;;;;;;;17.55;6.47;;;16.80;99.90;;;;;;5113297;28;20079;-72
2021/07/16 01:05:22;;;;;;;17.63;5.72;;;16.80;99.90;;;;;;5113318;28;20032;-72
2021/07/16 01:07:50;;;;;;;18.20;6.45;;;16.80;99.90;;;;;;5113662;28;20040;-72
2021/07/16 01:10:17;;;;;;;18.33;5.88;;;16.80;99.90;;;;;;5113583;28;20043;-71
2021/07/16 01:12:45;;;;;;;25.17;7.55;;;16.80;99.90;;;;;;5113437;28;20040;-72
2021/07/16 01:15:14;;;;;;;25.27;6.20;;;16.80;99.90;;;;;;5113236;28;20040;-72
2021/07/16 01:17:40;;;;;;;23.02;6.45;;;16.80;99.90;;;;;;5113462;28;20036;-72
2021/07/16 01:20:08;;;;;;;21.88;6.20;;;16.80;99.90;;;;;;5117030;28;20047;-72
2021/07/16 01:22:37;;;;;;;14.43;5.82;;;16.70;99.90;;;;;;5116734;28;20488;-72
2021/07/16 01:25:11;;;;;;;24.63;6.25;;;16.80;99.90;;;;;;5116909;28;20057;-72
2021/07/16 01:27:41;;;;;;;15.13;6.20;;;16.70;99.90;;;;;;5116930;28;20395;-72
2021/07/16 01:30:09;;;;;;;17.00;5.32;;;16.80;99.90;;;;;;5116311;28;20035;-71
2021/07/16 01:32:37;;;;;;;22.75;6.78;;;16.80;99.90;;;;;;5116887;28;20392;-72
2021/07/16 01:35:04;;;;;;;15.18;5.25;;;16.70;99.90;;;;;;5116752;28;20050;-72
2021/07/16 01:37:31;;;;;;;16.67;5.82;;;16.70;99.90;;;;;;5116396;28;20043;-72
2021/07/16 01:39:58;;;;;;;19.60;5.65;;;16.70;99.90;;;;;;5116196;28;20535;-72
2021/07/16 01:42:34;;;;;;;17.48;5.88;;;16.70;99.90;;;;;;5116323;28;20479;-72
2021/07/16 01:45:00;;;;;;;21.65;5.35;;;16.70;99.90;;;;;;5116464;28;20105;-72
2021/07/16 01:47:26;;;;;;;23.33;5.45;;;16.70;99.90;;;;;;5116251;28;20035;-72
2021/07/16 01:49:51;;;;;;;19.88;5.82;;;16.70;99.90;;;;;;5115798;28;20466;-72
2021/07/16 01:52:18;;;;;;;18.90;5.32;;;16.70;99.90;;;;;;5116244;28;20040;-71
2021/07/16 01:54:43;;;;;;;26.77;5.88;;;16.70;99.90;;;;;;5116039;28;20059;-72
2021/07/16 01:57:09;;;;;;;23.30;6.20;;;16.70;99.90;;;;;;5116015;28;20073;-72
2021/07/16 01:59:35;;;;;;;18.02;5.40;;;16.70;99.90;;;;;;5115905;28;20456;-72
2021/07/16 02:02:01;;;;;;;28.73;6.63;;;16.70;99.90;;;;;;5116426;28;20047;-72
2021/07/16 02:04:27;;;;;;;20.58;5.75;;;16.70;99.90;;;;;;5116206;27;20042;-72
2021/07/16 02:06:53;;;;;;;20.10;5.43;;;16.70;99.90;;;;;;5116014;28;20035;-72
2021/07/16 02:09:18;;;;;;;25.38;6.28;;;16.70;99.90;;;;;;5115738;28;20049;-72
2021/07/16 02:11:44;;;;;;;19.80;6.15;;;16.70;99.90;;;;;;5115752;28;20047;-72
2021/07/16 02:14:10;;;;;;;28.88;6.63;;;16.70;99.90;;;;;;5115805;28;20119;-72
2021/07/16 02:16:36;;;;;;;25.42;6.30;;;16.60;99.90;;;;;;5116035;28;20086;-72
2021/07/16 02:19:02;;;;;;;14.40;5.93;;;16.70;99.90;;;;;;5115846;28;20056;-72
2021/07/16 02:21:27;;;;;;;18.67;5.97;;;16.70;99.90;;;;;;5115536;28;20503;-72
2021/07/16 02:23:53;;;;;;;16.92;5.70;;;16.70;99.90;;;;;;5115693;27;20035;-72
2021/07/16 02:26:19;;;;;;;25.88;6.90;;;16.70;99.90;;;;;;5115745;28;20036;-72
2021/07/16 02:28:45;;;;;;;22.60;5.95;;;16.60;99.90;;;;;;5114840;28;20043;-72
2021/07/16 02:31:13;;;;;;;22.83;5.88;;;16.70;99.90;;;;;;5114602;28;20127;-72
2021/07/16 02:33:40;;;;;;;30.23;7.03;;;16.70;99.90;;;;;;5115526;28;20066;-72
2021/07/16 02:36:08;;;;;;;23.23;7.05;;;16.70;99.90;;;;;;5115301;28;20042;-72
2021/07/16 02:38:34;;;;;;;25.20;6.63;;;16.70;99.90;;;;;;5114927;28;20031;-72
2021/07/16 02:41:00;;;;;;;28.50;7.15;;;16.70;99.90;;;;;;5115249;28;20039;-72
2021/07/16 02:43:26;;;;;;;20.67;6.22;;;16.60;99.90;;;;;;5115133;28;20498;-72
2021/07/16 02:45:54;;;;;;;22.65;6.47;;;16.70;99.90;;;;;;5115505;28;20035;-72
2021/07/16 02:48:19;;;;;;;28.05;7.32;;;16.70;99.90;;;;;;5115429;28;20067;-72
2021/07/16 02:50:47;;;;;;;21.38;6.07;;;16.70;99.90;;;;;;5114493;28;20085;-72
2021/07/16 02:53:20;;;;;;;19.17;5.72;;;16.60;99.90;;;;;;5114914;28;20044;-72
2021/07/16 02:55:46;;;;;;;21.92;6.60;;;16.70;99.90;;;;;;5115173;28;20047;-72
2021/07/16 02:58:12;;;;;;;20.42;6.05;;;16.60;99.90;;;;;;5114961;28;20120;-72
2021/07/16 03:00:40;;;;;;;26.40;7.35;;;16.60;99.90;;;;;;5114491;28;20039;-72
2021/07/16 03:03:06;;;;;;;22.17;5.63;;;16.60;99.90;;;;;;5114697;28;20040;-72
2021/07/16 03:05:35;;;;;;;18.70;5.88;;;16.60;99.90;;;;;;5114767;28;20040;-72
2021/07/16 03:08:01;;;;;;;20.60;5.82;;;16.60;99.90;;;;;;5114981;28;20091;-72
2021/07/16 03:10:29;;;;;;;21.92;6.28;;;16.60;99.90;;;;;;5114114;28;20031;-72
2021/07/16 03:12:56;;;;;;;22.48;6.80;;;16.60;99.90;;;;;;5114735;28;20042;-72
2021/07/16 03:15:25;;;;;;;25.95;6.72;;;16.60;99.90;;;;;;5115046;28;20506;-72
2021/07/16 03:17:51;;;;;;;18.75;5.82;;;16.60;99.90;;;;;;5114633;28;20104;-72
2021/07/16 03:20:19;;;;;;;23.25;6.75;;;16.50;99.90;;;;;;5114349;28;20074;-72
2021/07/16 03:22:46;;;;;;;20.02;5.80;;;16.60;99.90;;;;;;5114697;28;20123;-72
2021/07/16 03:25:14;;;;;;;26.40;5.80;;;16.60;99.90;;;;;;5114615;28;20092;-72
2021/07/16 03:27:40;;;;;;;25.52;5.80;;;16.60;99.90;;;;;;5114452;28;20089;-72
2021/07/16 03:30:09;;;;;;;29.13;7.07;;;16.60;99.90;;;;;;5113766;28;20481;-72
2021/07/16 03:32:35;;;;;;;23.58;5.97;;;16.60;99.90;;;;;;5114301;28;20039;-72
2021/07/16 03:35:02;;;;;;;23.38;6.53;;;16.60;99.90;;;;;;5114805;28;20047;-71
2021/07/16 03:37:28;;;;;;;30.38;6.75;;;16.60;99.90;;;;;;5114605;28;20044;-72
2021/07/16 03:39:54;;;;;;;23.80;6.57;;;16.60;99.90;;;;;;5112843;28;20391;-72
2021/07/16 03:42:19;;;;;;;19.25;6.13;;;16.70;99.90;;;;;;5114319;28;20039;-72
2021/07/16 03:44:46;;;;;;;25.55;6.43;;;16.70;99.90;;;;;;5114157;28;20040;-72
2021/07/16 03:47:13;;;;;;;25.38;6.00;;;16.60;99.90;;;;;;5114267;28;20042;-72
2021/07/16 03:49:39;;;;;;;25.58;6.32;;;16.60;99.90;;;;;;5113895;28;20039;-72
2021/07/16 03:52:05;;;;;;;26.65;6.07;;;16.60;99.90;;;;;;5113858;28;20070;-72
2021/07/16 03:54:31;;;;;;;25.75;7.05;;;16.60;99.90;;;;;;5114176;28;20496;-72
2021/07/16 03:56:56;;;;;;;27.80;6.35;;;16.70;99.90;;;;;;5114322;28;20035;-72
2021/07/16 03:59:22;;;;;;;33.50;7.05;;;16.70;99.90;;;;;;5113594;28;20035;-72
2021/07/16 04:01:48;;;;;;;19.55;6.35;;;16.70;99.90;;;;;;5113964;28;20399;-72
2021/07/16 04:04:15;;;;;;;30.95;8.32;;;16.60;99.90;;;;;;5113844;28;20419;-72
2021/07/16 04:06:49;;;;;;;29.02;6.47;;;16.70;99.90;;;;;;5112563;28;20039;-72
2021/07/16 04:09:27;;;;;;;27.08;6.72;;;16.70;99.90;;;;;;5113740;28;20031;-72
2021/07/16 04:12:12;;;;;;;20.50;6.03;;;16.70;99.90;;;;;;5113592;28;20479;-72
2021/07/16 04:14:43;;;;;;;34.15;7.90;;;16.70;99.90;;;;;;5113793;28;20046;-72
2021/07/16 04:17:19;;;;;;;23.40;6.40;;;16.70;99.90;;;;;;5113737;28;20395;-72
2021/07/16 04:19:45;;;;;;;27.90;6.38;;;16.70;99.90;;;;;;5113596;28;20114;-72
2021/07/16 04:22:16;;;;;;;26.42;6.45;;;16.70;99.90;;;;;;5114136;28;20062;-72
2021/07/16 04:24:43;;;;;;;28.65;6.50;;;16.70;99.90;;;;;;5113712;28;20065;-72
2021/07/16 04:27:11;;;;;;;26.52;6.40;;;16.70;99.90;;;;;;5113955;28;20039;-72
2021/07/16 04:29:37;;;;;;;26.73;6.38;;;16.70;99.90;;;;;;5113333;28;20455;-72
2021/07/16 04:32:04;;;;;;;25.38;6.47;;;16.70;99.90;;;;;;5114009;28;20042;-72
2021/07/16 04:34:31;;;;;;;19.83;6.68;;;16.70;99.90;;;;;;5113500;28;20071;-72
2021/07/16 04:36:58;;;;;;;27.60;6.95;;;16.70;99.90;;;;;;5113575;28;20476;-71
2021/07/16 04:39:24;;;;;;;29.17;6.57;;;16.70;99.90;;;;;;5113128;28;20063;-71
2021/07/16 04:41:50;;;;;;;30.13;8.18;;;16.70;99.90;;;;;;5113559;28;20051;-71
2021/07/16 04:44:18;;;;;;;28.23;8.30;;;16.70;99.90;;;;;;5113935;28;20040;-71
2021/07/16 04:46:44;;;;;;;23.30;6.75;;;16.70;99.90;;;;;;5113677;28;20035;-71
2021/07/16 04:49:10;;;;;;;21.13;6.90;;;16.70;99.90;;;;;;5113551;28;20502;-71
2021/07/16 04:51:36;;;;;;;23.10;6.70;;;16.70;99.90;;;;;;5113262;28;20407;-70
2021/07/16 04:54:04;;;;;;;28.40;8.13;;;16.70;99.90;;;;;;5115986;28;20050;-71
2021/07/16 04:56:30;;;;;;;24.08;7.65;;;16.80;99.90;;;;;;5117194;27;20174;-71
2021/07/16 04:58:56;;;;;;;29.15;7.28;;;16.70;99.90;;;;;;5117109;28;20118;-71
2021/07/16 05:01:26;;;;;;;31.65;6.95;;;16.70;99.90;;;;;;5116093;28;20050;-71
2021/07/16 05:03:53;;;;;;;19.70;6.22;;;16.70;99.90;;;;;;5117258;28;20044;-71
2021/07/16 05:06:21;;;;;;;30.13;6.90;;;16.70;99.90;;;;;;5117223;27;20039;-71
2021/07/16 05:08:47;;;;;;;27.27;7.53;;;16.70;99.90;;;;;;5117321;28;20099;-71
2021/07/16 05:11:14;;;;;;;28.00;7.32;;;16.70;99.90;;;;;;5117514;27;20122;-71
2021/07/16 05:13:41;;;;;;;22.50;7.65;;;16.70;99.90;;;;;;5116809;28;20046;-71
2021/07/16 05:16:09;;;;;;;24.83;6.95;;;16.80;99.90;;;;;;5117208;28;20036;-71
2021/07/16 05:18:37;;;;;;;26.23;6.45;;;16.80;99.90;;;;;;5116979;28;20127;-71
2021/07/16 05:21:05;;;;;;;28.60;7.25;;;16.80;99.90;;;;;;5117060;28;20040;-71
2021/07/16 05:23:31;;;;;;;26.80;7.38;;;16.80;99.90;;;;;;5116746;28;20036;-71
2021/07/16 05:25:56;;;;;;;35.13;8.10;;;16.90;99.90;;;;;;5116864;28;20396;-71
2021/07/16 05:28:22;;;;;;;32.08;7.90;;;16.90;99.90;;;;;;5116762;28;20468;-72
2021/07/16 05:30:49;;;;;;;29.27;7.22;;;16.90;99.90;;;;;;5116228;28;20047;-71
2021/07/16 05:33:15;;;;;;;29.45;7.88;;;16.90;99.90;;;;;;5116433;28;20036;-72
2021/07/16 05:35:41;;;;;;;24.95;7.20;;;16.90;99.90;;;;;;5117111;28;20073;-72
2021/07/16 05:38:08;;;;;;;34.80;7.10;;;16.90;99.90;;;;;;5116555;28;20032;-72
2021/07/16 05:40:34;;;;;;;33.53;9.07;;;17.00;99.90;;;;;;5116007;28;20127;-72
2021/07/16 05:43:08;;;;;;;26.27;6.45;;;17.00;99.90;;;;;;5116955;28;20039;-72
2021/07/16 05:45:39;;;;;;;30.50;8.15;;;16.90;99.90;;;;;;5116886;28;20380;-72
2021/07/16 05:48:09;;;;;;;29.48;7.93;;;16.90;99.90;;;;;;5116300;28;20088;-72
2021/07/16 05:50:36;;;;;;;33.00;8.48;;;17.00;99.90;;;;;;5115812;27;20488;-71
2021/07/16 05:53:04;;;;;;;38.60;7.93;;;16.90;99.90;;;;;;5116086;28;20047;-71
2021/07/16 05:55:30;;;;;;;27.38;7.50;;;16.90;99.90;;;;;;5116039;28;20039;-71
2021/07/16 05:57:56;;;;;;;28.75;6.93;;;16.90;99.90;;;;;;5116723;28;20035;-71
2021/07/16 06:00:22;;;;;;;32.25;7.05;;;17.00;99.90;;;;;;5115605;28;20057;-71
2021/07/16 06:02:48;;;;;;;21.38;6.43;;;16.90;99.90;;;;;;5116069;28;20114;-71
2021/07/16 06:05:14;;;;;;;35.33;7.80;;;17.10;99.90;;;;;;5115962;28;20039;-71
2021/07/16 06:07:40;;;;;;;24.60;6.95;;;17.00;99.90;;;;;;5115863;28;20058;-71
2021/07/16 06:10:07;;;;;;;27.02;7.05;;;17.00;99.90;;;;;;5115677;28;20101;-71
2021/07/16 06:12:34;;;;;;;30.35;7.88;;;17.00;99.90;;;;;;5115949;28;20521;-71
2021/07/16 06:15:00;;;;;;;27.10;7.18;;;17.10;99.90;;;;;;5116173;28;20078;-71
2021/07/16 06:17:30;;;;;;;31.48;7.38;;;17.00;99.90;;;;;;5115701;27;20063;-71
2021/07/16 06:19:59;;;;;;;30.65;7.32;;;17.10;99.90;;;;;;5115416;28;20040;-71
2021/07/16 06:22:25;;;;;;;29.33;7.63;;;17.10;99.90;;;;;;5114610;28;20126;-71
2021/07/16 06:24:51;;;;;;;25.23;7.18;;;17.10;99.90;;;;;;5115689;28;20067;-71
2021/07/16 06:27:17;;;;;;;30.17;7.45;;;17.10;99.90;;;;;;5115438;28;20036;-71
2021/07/16 06:29:42;;;;;;;31.05;7.57;;;17.20;99.90;;;;;;5115079;28;20441;-72
2021/07/16 06:32:08;;;;;;;35.42;8.57;;;17.30;99.90;;;;;;5115551;28;20047;-71
2021/07/16 06:34:34;;;;;;;31.83;6.50;;;17.30;99.90;;;;;;5115361;28;20047;-72
2021/07/16 06:37:00;;;;;;;26.15;8.55;;;17.30;99.90;;;;;;5115705;28;20035;-72
2021/07/16 06:39:25;;;;;;;30.77;6.35;;;17.30;99.90;;;;;;5115000;28;20084;-71
2021/07/16 06:41:51;;;;;;;27.13;8.10;;;17.30;99.90;;;;;;5115083;27;20487;-71
2021/07/16 06:44:17;;;;;;;29.98;8.13;;;17.30;99.90;;;;;;5115149;28;20035;-71
2021/07/16 06:46:44;;;;;;;30.60;6.82;;;17.20;99.90;;;;;;5115230;28;20043;-71
2021/07/16 06:49:09;;;;;;;28.38;7.88;;;17.30;99.90;;;;;;5114850;28;20092;-71
2021/07/16 06:51:36;;;;;;;26.55;6.28;;;17.30;99.90;;;;;;5114946;28;20122;-71
2021/07/16 06:54:03;;;;;;;31.42;8.38;;;17.30;99.90;;;;;;5114933;28;20043;-71
2021/07/16 06:56:30;;;;;;;26.73;7.00;;;17.30;99.90;;;;;;5114834;28;20059;-71
2021/07/16 06:58:56;;;;;;;26.52;6.80;;;17.20;99.90;;;;;;5114674;28;20032;-71
2021/07/16 07:01:22;;;;;;;32.53;7.78;;;17.20;99.90;;;;;;5115001;28;20047;-71
2021/07/16 07:03:48;;;;;;;26.63;6.28;;;17.30;99.90;;;;;;5114783;28;20074;-71
2021/07/16 07:06:14;;;;;;;34.15;7.68;;;17.30;99.90;;;;;;5115185;28;20036;-71
2021/07/16 07:08:40;;;;;;;32.00;7.32;;;17.30;99.90;;;;;;5114675;28;20050;-72
2021/07/16 07:11:07;;;;;;;31.52;8.52;;;17.30;99.90;;;;;;5114829;28;20039;-71
2021/07/16 07:13:33;;;;;;;31.23;7.10;;;17.30;99.90;;;;;;5114388;28;20039;-71
2021/07/16 07:15:59;;;;;;;27.98;7.03;;;17.30;99.90;;;;;;5112941;28;20093;-71
2021/07/16 07:18:25;;;;;;;34.97;6.82;;;17.30;99.90;;;;;;5114852;28;20039;-71
2021/07/16 07:20:53;;;;;;;27.27;7.70;;;17.40;99.90;;;;;;5114378;28;20047;-71
2021/07/16 07:23:19;;;;;;;35.42;7.38;;;17.40;99.90;;;;;;5114526;28;20043;-70
2021/07/16 07:25:45;;;;;;;22.73;7.38;;;17.30;99.90;;;;;;5114373;28;20039;-71
2021/07/16 07:28:11;;;;;;;34.20;7.72;;;17.40;99.90;;;;;;5114459;28;20039;-72
2021/07/16 07:30:37;;;;;;;27.90;6.47;;;17.40;99.90;;;;;;5113930;28;20073;-71
2021/07/16 07:33:06;;;;;;;32.17;7.07;;;17.50;99.90;;;;;;5114518;28;20093;-72
2021/07/16 07:35:33;;;;;;;29.20;7.03;;;17.40;99.90;;;;;;5114227;28;20042;-72
2021/07/16 07:38:00;;;;;;;31.75;6.95;;;17.40;99.90;;;;;;5114222;28;20082;-71
2021/07/16 07:40:26;;;;;;;34.33;6.68;;;17.40;99.90;;;;;;5113622;28;20123;-72
2021/07/16 07:42:52;;;;;;;33.72;6.45;;;17.50;99.90;;;;;;5114410;28;20074;-71
2021/07/16 07:45:17;;;;;;;35.42;7.40;;;17.50;99.90;;;;;;5114045;28;20039;-72
2021/07/16 07:47:43;;;;;;;31.17;7.13;;;17.50;99.90;;;;;;5113891;28;20527;-71
2021/07/16 07:50:16;;;;;;;31.05;8.15;;;17.60;99.90;;;;;;5113658;28;20059;-71
2021/07/16 07:52:43;;;;;;;27.67;6.45;;;17.60;99.90;;;;;;5114334;28;20040;-71
2021/07/16 07:55:10;;;;;;;26.77;6.97;;;17.70;99.90;;;;;;5114077;28;20036;-72
2021/07/16 07:57:36;;;;;;;24.40;7.05;;;17.80;99.90;;;;;;5114051;28;20031;-72
2021/07/16 08:00:04;;;;;;;28.50;8.32;;;17.80;99.90;;;;;;5113658;28;20046;-71
2021/07/16 08:02:30;;;;;;;29.98;7.82;;;17.90;99.90;;;;;;5113994;28;20043;-72
2021/07/16 08:04:55;;;;;;;25.27;6.68;;;18.00;99.90;;;;;;5113886;28;20046;-72
2021/07/16 08:07:21;;;;;;;32.70;7.22;;;18.00;99.90;;;;;;5113744;28;20041;-72
2021/07/16 08:09:47;;;;;;;29.27;7.13;;;18.10;99.90;;;;;;5113656;28;20035;-72
2021/07/16 08:12:12;;;;;;;23.83;6.95;;;18.10;99.90;;;;;;5113675;28;20039;-72
2021/07/16 08:14:38;;;;;;;24.90;6.40;;;18.00;99.90;;;;;;5114113;28;20394;-72
2021/07/16 08:17:04;;;;;;;28.15;6.82;;;18.10;99.90;;;;;;5113818;28;20046;-72
2021/07/16 08:19:30;;;;;;;35.17;7.85;;;18.00;99.90;;;;;;5113300;28;20119;-71
2021/07/16 08:21:56;;;;;;;26.67;7.70;;;18.10;99.90;;;;;;5114147;28;20135;-71
2021/07/16 08:24:22;;;;;;;29.88;7.55;;;18.10;99.90;;;;;;5113617;28;20110;-71
2021/07/16 08:26:48;;;;;;;32.42;7.63;;;18.00;99.90;;;;;;5114503;28;20039;-71
2021/07/16 08:29:15;;;;;;;29.15;8.20;;;18.20;99.90;;;;;;5117417;28;20032;-72
2021/07/16 08:31:43;;;;;;;25.92;8.13;;;18.30;99.90;;;;;;5117850;28;20063;-71
2021/07/16 08:34:09;;;;;;;31.48;7.45;;;18.30;99.90;;;;;;5117710;28;20043;-72
2021/07/16 08:36:36;;;;;;;29.85;7.72;;;18.30;99.90;;;;;;5118192;28;20043;-71
2021/07/16 08:39:04;;;;;;;29.48;8.45;;;18.20;99.90;;;;;;5117475;28;20067;-72
2021/07/16 08:41:29;;;;;;;30.48;7.47;;;18.30;99.90;;;;;;5117704;28;20047;-72
2021/07/16 08:43:55;;;;;;;32.88;8.23;;;18.30;99.90;;;;;;5117756;28;20036;-72
2021/07/16 08:46:21;;;;;;;24.60;6.43;;;18.40;99.90;;;;;;5117448;28;20035;-71
2021/07/16 08:48:50;;;;;;;25.70;6.55;;;18.30;99.90;;;;;;5117162;28;20376;-71
2021/07/16 08:51:20;;;;;;;26.02;7.03;;;18.30;99.90;;;;;;5117461;28;20087;-71
2021/07/16 08:53:50;;;;;;;30.48;8.32;;;18.40;99.90;;;;;;5117328;28;20040;-71
2021/07/16 08:56:17;;;;;;;24.30;6.70;;;18.40;99.90;;;;;;5118003;28;20031;-71
2021/07/16 08:58:43;;;;;;;25.63;8.13;;;18.30;99.90;;;;;;5116925;28;20043;-72
2021/07/16 09:01:10;;;;;;;32.30;8.43;;;18.50;99.90;;;;;;5117316;28;20410;-71
2021/07/16 09:03:53;;;;;;;25.45;6.95;;;18.50;99.90;;;;;;5117413;27;20047;-72
2021/07/16 09:06:19;;;;;;;30.25;6.97;;;18.40;99.90;;;;;;5117281;28;20141;-72
2021/07/16 09:08:46;;;;;;;29.92;7.10;;;18.30;99.90;;;;;;5116905;28;20483;-72
2021/07/16 09:11:19;;;;;;;28.42;8.32;;;18.20;99.90;;;;;;5116838;28;20043;-71
2021/07/16 09:13:51;;;;;;;27.15;8.00;;;18.30;99.90;;;;;;5116911;28;20050;-72
2021/07/16 09:16:19;;;;;;;23.20;8.37;;;18.30;99.90;;;;;;5117451;28;20500;-72
2021/07/16 09:18:49;;;;;;;27.17;7.32;;;18.20;99.90;;;;;;5116585;28;20453;-72
2021/07/16 09:21:14;;;;;;;36.42;8.40;;;18.20;99.90;;;;;;5115778;28;20051;-72
2021/07/16 09:23:43;;;;;;;29.30;8.50;;;18.20;99.90;;;;;;5116807;28;20427;-72
2021/07/16 09:26:15;;;;;;;30.92;7.20;;;18.20;99.90;;;;;;5117098;28;20067;-72
2021/07/16 09:28:46;;;;;;;25.90;7.38;;;18.30;99.90;;;;;;5114205;28;20042;-72
2021/07/16 09:31:13;;;;;;;26.98;6.80;;;18.30;99.90;;;;;;5113586;28;20044;-72
2021/07/16 09:33:52;;;;;;;34.53;7.85;;;18.30;99.90;;;;;;5096290;28;20052;-72
2021/07/16 09:36:35;;;;;;;25.55;7.30;;;18.40;99.90;;;;;;5095941;28;20036;-71
2021/07/16 09:39:09;;;;;;;;;;;18.50;99.90;;;;;;5095582;28;20047;-72
2021/07/16 09:41:50;;;;;;;33.72;8.07;;;18.50;99.90;;;;;;5096285;28;19916;-72
2021/07/16 09:44:38;;;;;;;33.75;7.30;;;18.60;99.90;;;;;;5096157;28;20055;-72
2021/07/16 09:47:13;;;;;;;26.17;6.95;;;18.60;99.90;;;;;;5096570;28;20032;-72
2021/07/16 09:49:39;;;;;;;29.77;8.38;;;18.70;99.90;;;;;;5095874;28;20089;-72
2021/07/16 09:52:17;;;;;;;28.13;7.65;;;18.70;99.90;;;;;;5095953;28;20047;-72
2021/07/16 09:55:13;;;;;;;27.52;8.23;;;18.70;99.90;;;;;;5096420;28;20040;-72
2021/07/16 09:57:42;;;;;;;23.60;7.97;;;18.70;99.90;;;;;;5095661;28;20038;-72
2021/07/16 10:00:19;;;;;;;27.38;7.35;;;18.70;99.90;;;;;;5095275;28;20040;-72
2021/07/16 10:02:47;;;;;;;22.80;7.05;;;18.60;99.90;;;;;;5095938;28;20040;-72
2021/07/16 10:05:14;;;;;;;29.20;7.97;;;18.70;99.90;;;;;;5094388;28;20032;-72
2021/07/16 10:07:44;;;;;;;30.88;9.52;;;18.70;99.90;;;;;;5095718;28;20056;-72
2021/07/16 10:10:15;;;;;;;24.52;7.97;;;18.70;99.90;;;;;;5095202;28;20044;-71
2021/07/16 10:12:43;;;;;;;30.33;8.40;;;18.70;99.90;;;;;;5092579;28;20040;-71
2021/07/16 10:15:11;;;;;;;23.20;7.40;;;18.80;99.90;;;;;;5094529;28;20042;-71
2021/07/16 10:17:37;;;;;;;28.00;8.85;;;18.90;99.90;;;;;;5094780;28;20063;-71
2021/07/16 10:20:11;;;;;;;31.17;8.27;;;18.90;99.90;;;;;;5094151;28;20491;-71
2021/07/16 10:22:41;;;;;;;25.90;8.45;;;19.00;99.90;;;;;;5095416;28;20476;-72
2021/07/16 10:25:10;;;;;;;25.40;8.48;;;19.00;99.90;;;;;;5095282;28;20392;-72
2021/07/16 10:27:36;;;;;;;32.53;7.43;;;18.90;99.90;;;;;;5095626;28;20089;-71
2021/07/16 10:30:13;;;;;;;32.15;8.05;;;19.10;99.90;;;;;;5094949;28;20380;-71
2021/07/16 10:32:57;;;;;;;29.02;8.07;;;19.10;99.90;;;;;;5095278;28;20524;-71
2021/07/16 10:35:35;;;;;;;27.38;7.47;;;19.00;99.90;;;;;;5095235;28;20032;-71
2021/07/16 10:38:03;;;;;;;29.13;9.00;;;19.10;99.90;;;;;;5093143;28;20040;-71
2021/07/16 10:40:39;;;;;;;27.00;8.18;;;19.10;99.90;;;;;;5094169;28;20076;-71
2021/07/16 10:43:06;;;;;;;28.40;8.43;;;19.20;99.90;;;;;;5095500;28;20036;-71
2021/07/16 10:45:37;;;;;;;27.08;9.85;;;19.20;99.90;;;;;;5094681;28;20051;-71
2021/07/16 10:48:10;;;;;;;30.17;8.48;;;19.20;99.90;;;;;;5094987;28;20071;-71
2021/07/16 10:50:38;;;;;;;29.50;8.32;;;19.30;99.90;;;;;;5093248;28;20486;-71
2021/07/16 10:53:05;;;;;;;25.80;7.70;;;19.40;99.90;;;;;;5094528;28;20112;-71
2021/07/16 10:55:35;;;;;;;30.13;7.53;;;19.30;99.90;;;;;;5095190;28;20064;-71
2021/07/16 10:58:17;;;;;;;35.25;8.93;;;19.30;99.90;;;;;;5094605;28;20036;-71
2021/07/16 11:00:43;;;;;;;27.58;7.70;;;19.20;99.90;;;;;;5094012;28;20097;-71
2021/07/16 11:03:13;;;;;;;29.50;9.48;;;19.20;99.90;;;;;;5094355;28;20044;-71
2021/07/16 11:05:47;;;;;;;24.98;7.53;;;19.30;99.90;;;;;;5094813;28;20038;-72
2021/07/16 11:08:32;;;;;;;22.58;7.95;;;19.30;99.90;;;;;;5094640;28;20032;-71
2021/07/16 11:11:03;;;;;;;24.52;7.43;;;19.20;99.90;;;;;;5094764;28;20061;-71
2021/07/16 11:13:35;;;;;;;24.48;8.10;;;19.30;99.90;;;;;;5094144;28;20046;-71
2021/07/16 11:16:27;;;;;;;25.15;8.05;;;19.50;99.90;;;;;;5094329;28;20115;-72
2021/07/16 11:19:12;;;;;;;27.02;8.07;;;19.60;99.90;;;;;;5093699;28;20480;-72
2021/07/16 11:21:46;;;;;;;24.17;8.55;;;19.80;99.90;;;;;;5094135;28;20058;-71
2021/07/16 11:24:15;;;;;;;30.35;7.35;;;19.80;99.90;;;;;;5094114;28;20043;-72
2021/07/16 11:26:59;;;;;;;24.67;7.33;;;19.90;99.90;;;;;;5093027;28;20044;-72
2021/07/16 11:29:37;;;;;;;29.15;9.57;;;19.80;99.90;;;;;;5092906;28;20307;-71
2021/07/16 11:32:05;;;;;;;27.65;7.75;;;19.90;99.90;;;;;;5093926;28;20051;-71
2021/07/16 11:34:31;;;;;;;31.65;9.57;;;19.70;99.90;;;;;;5093778;28;20040;-73
2021/07/16 11:36:57;;;;;;;24.30;8.30;;;19.60;99.90;;;;;;5093873;28;20036;-73
2021/07/16 11:39:25;;;;;;;22.63;8.38;;;19.70;99.90;;;;;;5093725;28;20032;-72
2021/07/16 11:41:51;;;;;;;32.38;9.23;;;19.60;99.90;;;;;;5093747;28;20445;-72
2021/07/16 11:44:27;;;;;;;32.22;9.15;;;19.60;99.90;;;;;;5093674;28;20032;-72
2021/07/16 11:46:54;;;;;;;29.23;9.15;;;19.60;99.90;;;;;;5093971;28;20035;-72
2021/07/16 11:49:31;;;;;;;34.53;10.23;;;19.50;99.90;;;;;;5093388;28;20032;-71
2021/07/16 11:51:59;;;;;;;35.40;10.20;;;19.50;99.90;;;;;;5093668;28;20044;-72
2021/07/16 11:54:31;;;;;;;25.65;8.55;;;19.50;99.90;;;;;;5092344;28;20028;-71
2021/07/16 11:57:00;;;;;;;28.05;10.73;;;19.70;99.90;;;;;;5093556;28;20044;-72
2021/07/16 11:59:28;;;;;;;28.88;10.10;;;19.70;99.90;;;;;;5093648;28;20088;-71
2021/07/16 12:02:07;;;;;;;31.13;9.50;;;19.80;99.90;;;;;;5093521;28;20046;-71
2021/07/16 12:04:33;;;;;;;24.02;8.85;;;19.80;99.90;;;;;;5093334;28;20058;-72
2021/07/16 12:06:58;;;;;;;25.70;9.43;;;19.90;99.90;;;;;;5094016;28;20044;-72
2021/07/16 12:09:35;;;;;;;28.10;9.20;;;20.00;99.90;;;;;;5093395;28;20046;-73
2021/07/16 12:12:09;;;;;;;30.92;10.20;;;20.00;99.90;;;;;;5091966;28;20090;-73
2021/07/16 12:14:44;;;;;;;28.20;10.38;;;20.00;99.90;;;;;;5093950;28;20032;-72
2021/07/16 12:17:10;;;;;;;31.67;11.23;;;19.80;99.90;;;;;;5093317;28;20070;-72
2021/07/16 12:19:36;;;;;;;23.88;8.68;;;19.90;99.90;;;;;;5093399;28;20032;-73
2021/07/16 12:22:02;;;;;;;29.10;9.75;;;20.10;99.90;;;;;;5093420;28;20044;-72
2021/07/16 12:24:28;;;;;;;28.55;9.52;;;20.00;99.90;;;;;;5093528;28;20060;-72
2021/07/16 12:27:11;;;;;;;27.83;9.27;;;20.00;99.90;;;;;;5093278;28;20040;-72
2021/07/16 12:29:37;;;;;;;24.58;8.48;;;19.80;99.90;;;;;;5093044;28;20491;-72
2021/07/16 12:32:04;;;;;;;29.98;10.70;;;19.90;99.90;;;;;;5093259;28;20093;-72
2021/07/16 12:34:31;;;;;;;21.10;8.50;;;20.00;99.90;;;;;;5093401;28;20404;-72
2021/07/16 12:37:16;;;;;;;28.92;9.85;;;19.90;99.90;;;;;;5093251;28;20480;-72
2021/07/16 12:39:46;;;;;;;22.05;9.25;;;19.90;99.90;;;;;;5092980;28;20507;-72
2021/07/16 12:42:18;;;;;;;34.80;9.90;;;20.10;99.90;;;;;;5093443;28;20048;-72